createdAt,value
2023-01-08T00:01:17.135Z,6.90
2023-01-08T00:03:44.244Z,7.00
2023-01-08T00:06:15.911Z,7.00
2023-01-08T00:08:43.469Z,7.00
2023-01-08T00:11:11.392Z,7.00
2023-01-08T00:13:38.550Z,7.00
2023-01-08T00:16:15.452Z,7.10
2023-01-08T00:18:43.178Z,7.10
2023-01-08T00:21:10.091Z,7.10
2023-01-08T00:23:38.098Z,7.10
2023-01-08T00:26:08.589Z,7.10
2023-01-08T00:28:37.281Z,7.10
2023-01-08T00:31:06.458Z,7.20
2023-01-08T00:33:34.095Z,7.20
2023-01-08T00:36:06.545Z,7.20
2023-01-08T00:38:33.347Z,7.20
2023-01-08T00:41:00.193Z,7.20
2023-01-08T00:43:27.002Z,7.20
2023-01-08T00:45:54.259Z,7.20
2023-01-08T00:48:25.164Z,7.20
2023-01-08T00:50:53.872Z,7.20
2023-01-08T00:53:22.491Z,7.20
2023-01-08T00:55:49.886Z,7.20
2023-01-08T00:58:16.795Z,7.20
2023-01-08T01:00:43.640Z,7.20
2023-01-08T01:03:10.504Z,7.20
2023-01-08T01:05:37.387Z,7.30
2023-01-08T01:08:04.665Z,7.30
2023-01-08T01:10:31.473Z,7.20
2023-01-08T01:12:58.317Z,7.20
2023-01-08T01:15:25.625Z,7.30
2023-01-08T01:17:52.533Z,7.30
2023-01-08T01:20:19.434Z,7.20
2023-01-08T01:22:46.288Z,7.30
2023-01-08T01:25:13.238Z,7.30
2023-01-08T01:27:40.319Z,7.30
2023-01-08T01:30:08.476Z,7.30
2023-01-08T01:32:35.880Z,7.30
2023-01-08T01:35:03.437Z,7.30
2023-01-08T01:37:30.338Z,7.30
2023-01-08T01:39:57.960Z,7.20
2023-01-08T01:42:40.279Z,7.20
2023-01-08T01:45:16.879Z,7.20
2023-01-08T01:48:05.848Z,7.20
2023-01-08T01:50:43.462Z,7.20
2023-01-08T01:53:38.152Z,7.20
2023-01-08T01:56:05.888Z,7.20
2023-01-08T01:58:35.794Z,7.20
2023-01-08T02:01:08.256Z,7.30
2023-01-08T02:03:39.356Z,7.20
2023-01-08T02:06:37.993Z,7.20
2023-01-08T02:09:31.512Z,7.20
2023-01-08T02:12:18.353Z,7.20
2023-01-08T02:15:04.230Z,7.20
2023-01-08T02:18:18.458Z,7.20
2023-01-08T02:20:57.109Z,7.30
2023-01-08T02:24:29.000Z,7.30
2023-01-08T02:26:59.479Z,7.30
2023-01-08T02:29:29.007Z,7.30
2023-01-08T02:31:56.573Z,7.30
2023-01-08T02:34:23.447Z,7.30
2023-01-08T02:36:56.988Z,7.30
2023-01-08T02:39:56.165Z,7.30
2023-01-08T02:42:57.203Z,7.30
2023-01-08T02:45:36.846Z,7.30
2023-01-08T02:48:14.974Z,7.20
2023-01-08T02:51:08.437Z,7.20
2023-01-08T02:53:43.534Z,7.30
2023-01-08T02:56:19.301Z,7.20
2023-01-08T02:58:48.433Z,7.20
2023-01-08T03:01:17.864Z,7.30
2023-01-08T03:03:51.302Z,7.30
2023-01-08T03:06:20.998Z,7.30
2023-01-08T03:08:52.721Z,7.30
2023-01-08T03:11:27.441Z,7.30
2023-01-08T03:14:19.164Z,7.30
2023-01-08T03:16:54.825Z,7.30
2023-01-08T03:19:57.590Z,7.40
2023-01-08T03:22:24.992Z,7.30
2023-01-08T03:24:55.422Z,7.40
2023-01-08T03:27:29.473Z,7.40
2023-01-08T03:29:59.220Z,7.30
2023-01-08T03:32:29.801Z,7.40
2023-01-08T03:34:58.935Z,7.30
2023-01-08T03:37:34.906Z,7.30
2023-01-08T03:40:26.350Z,7.30
2023-01-08T03:42:53.337Z,7.40
2023-01-08T03:45:24.017Z,7.40
2023-01-08T03:47:52.067Z,7.40
2023-01-08T03:50:27.287Z,7.30
2023-01-08T03:52:54.306Z,7.30
2023-01-08T03:55:21.482Z,7.30
2023-01-08T03:57:48.362Z,7.30
2023-01-08T04:00:16.476Z,7.30
2023-01-08T04:02:43.898Z,7.30
2023-01-08T04:05:11.543Z,7.30
2023-01-08T04:07:38.457Z,7.30
2023-01-08T04:10:08.876Z,7.30
2023-01-08T04:12:35.783Z,7.40
2023-01-08T04:15:02.742Z,7.30
2023-01-08T04:17:29.955Z,7.40
2023-01-08T04:19:57.083Z,7.40
2023-01-08T04:22:23.915Z,7.40
2023-01-08T04:24:50.723Z,7.40
2023-01-08T04:27:17.608Z,7.40
2023-01-08T04:29:44.446Z,7.40
2023-01-08T04:32:11.290Z,7.50
2023-01-08T04:34:38.394Z,7.50
2023-01-08T04:37:05.525Z,7.50
2023-01-08T04:39:32.582Z,7.40
2023-01-08T04:41:59.441Z,7.50
2023-01-08T04:44:26.421Z,7.50
2023-01-08T04:46:53.391Z,7.50
2023-01-08T04:49:20.293Z,7.50
2023-01-08T04:51:47.113Z,7.40
2023-01-08T04:54:14.049Z,7.40
2023-01-08T04:56:40.862Z,7.40
2023-01-08T04:59:07.666Z,7.40
2023-01-08T05:01:34.959Z,7.50
2023-01-08T05:04:04.607Z,7.40
2023-01-08T05:06:32.995Z,7.40
2023-01-08T05:09:00.150Z,7.40
2023-01-08T05:11:27.066Z,7.40
2023-01-08T05:13:54.567Z,7.40
2023-01-08T05:16:22.195Z,7.40
2023-01-08T05:18:49.080Z,7.40
2023-01-08T05:21:16.630Z,7.30
2023-01-08T05:23:47.810Z,7.30
2023-01-08T05:26:17.035Z,7.30
2023-01-08T05:28:44.094Z,7.30
2023-01-08T05:31:14.574Z,7.30
2023-01-08T05:33:42.120Z,7.20
2023-01-08T05:36:11.822Z,7.20
2023-01-08T05:38:39.377Z,7.30
2023-01-08T05:54:42.105Z,7.20
2023-01-08T05:57:08.886Z,7.70
2023-01-08T05:59:35.754Z,7.50
2023-01-08T06:02:02.594Z,7.40
2023-01-08T06:04:29.516Z,7.30
2023-01-08T06:06:56.475Z,7.30
2023-01-08T06:09:23.337Z,7.20
2023-01-08T06:11:50.141Z,7.20
2023-01-08T06:14:17.177Z,7.10
2023-01-08T06:16:44.567Z,7.10
2023-01-08T06:19:12.430Z,7.10
2023-01-08T06:21:39.236Z,7.10
2023-01-08T06:24:06.364Z,7.00
2023-01-08T06:26:33.203Z,7.00
2023-01-08T06:29:00.675Z,7.00
2023-01-08T06:31:27.620Z,7.00
2023-01-08T06:33:54.509Z,7.00
2023-01-08T06:36:21.407Z,7.00
2023-01-08T06:38:48.256Z,7.00
2023-01-08T06:41:15.115Z,6.90
2023-01-08T06:43:41.925Z,6.90
2023-01-08T06:46:10.254Z,6.90
2023-01-08T06:48:37.879Z,6.80
2023-01-08T06:51:05.270Z,6.90
2023-01-08T06:53:32.323Z,6.90
2023-01-08T06:55:59.494Z,6.80
2023-01-08T06:58:29.020Z,6.80
2023-01-08T07:00:56.306Z,6.80
2023-01-08T07:03:23.201Z,6.80
2023-01-08T07:05:50.823Z,6.80
2023-01-08T07:08:19.135Z,6.80
2023-01-08T07:10:46.171Z,6.80
2023-01-08T07:13:13.499Z,6.80
2023-01-08T07:15:41.892Z,6.80
2023-01-08T07:18:11.753Z,6.70
2023-01-08T07:20:39.633Z,6.80
2023-01-08T07:23:12.023Z,6.80
2023-01-08T07:25:39.250Z,6.80
2023-01-08T07:28:06.703Z,6.70
2023-01-08T07:30:33.543Z,6.70
2023-01-08T07:33:01.689Z,6.70
2023-01-08T07:35:29.409Z,6.70
2023-01-08T07:37:56.541Z,6.70
2023-01-08T07:40:23.717Z,6.70
2023-01-08T07:43:03.485Z,6.70
2023-01-08T07:45:31.170Z,6.80
2023-01-08T07:47:59.114Z,6.80
2023-01-08T07:50:27.098Z,6.80
2023-01-08T07:53:01.085Z,6.70
2023-01-08T07:55:30.471Z,6.70
2023-01-08T07:57:57.469Z,6.70
2023-01-08T08:00:24.367Z,6.80
2023-01-08T08:02:51.358Z,6.80
2023-01-08T08:05:18.374Z,6.80
2023-01-08T08:07:45.262Z,6.80
2023-01-08T08:10:12.145Z,6.70
2023-01-08T08:12:38.977Z,6.80
2023-01-08T08:15:06.856Z,6.80
2023-01-08T08:17:33.686Z,6.80
2023-01-08T08:20:00.536Z,6.80
2023-01-08T08:22:27.502Z,6.70
2023-01-08T08:24:54.410Z,6.70
2023-01-08T08:27:21.368Z,6.70
2023-01-08T08:29:48.172Z,6.70
2023-01-08T08:32:15.078Z,6.70
2023-01-08T08:34:41.926Z,6.80
2023-01-08T08:37:09.550Z,6.80
2023-01-08T08:39:36.962Z,6.70
2023-01-08T08:42:03.913Z,6.70
2023-01-08T08:44:30.776Z,6.70
2023-01-08T08:46:57.730Z,6.70
2023-01-08T08:49:24.882Z,6.70
2023-01-08T08:51:53.115Z,6.70
2023-01-08T08:54:19.981Z,6.70
2023-01-08T08:56:49.079Z,6.70
2023-01-08T08:59:15.920Z,6.70
2023-01-08T09:01:42.859Z,6.80
2023-01-08T09:04:09.802Z,6.80
2023-01-08T09:06:36.659Z,6.80
2023-01-08T09:09:03.950Z,6.80
2023-01-08T09:11:32.604Z,6.80
2023-01-08T09:13:59.452Z,6.80
2023-01-08T09:16:26.940Z,6.80
2023-01-08T09:18:53.936Z,6.80
2023-01-08T09:21:20.891Z,6.80
2023-01-08T09:23:49.719Z,6.80
2023-01-08T09:26:16.552Z,6.80
2023-01-08T09:28:43.750Z,6.80
2023-01-08T09:31:10.777Z,6.80
2023-01-08T09:33:37.640Z,6.80
2023-01-08T09:36:04.842Z,6.90
2023-01-08T09:38:31.695Z,6.80
2023-01-08T09:41:28.497Z,6.80
2023-01-08T09:43:58.437Z,6.80
2023-01-08T09:46:28.753Z,6.80
2023-01-08T09:49:01.620Z,6.80
2023-01-08T09:51:35.335Z,6.80
2023-01-08T09:54:03.779Z,6.80
2023-01-08T09:56:30.801Z,6.80
2023-01-08T09:59:01.754Z,6.80
2023-01-08T10:01:34.667Z,6.80
2023-01-08T10:04:06.280Z,6.80
2023-01-08T10:06:33.972Z,6.80
2023-01-08T10:09:01.044Z,6.80
2023-01-08T10:11:44.191Z,6.80
2023-01-08T10:14:33.952Z,6.80
2023-01-08T10:17:28.032Z,6.80
2023-01-08T10:19:55.084Z,6.70
2023-01-08T10:22:25.667Z,6.70
2023-01-08T10:24:53.077Z,6.80
2023-01-08T10:27:23.872Z,6.80
2023-01-08T10:29:52.009Z,6.80
2023-01-08T10:32:29.943Z,6.80
2023-01-08T10:34:58.659Z,6.80
2023-01-08T10:37:31.829Z,6.80
2023-01-08T10:40:42.139Z,6.80
2023-01-08T10:43:26.604Z,6.80
2023-01-08T10:46:02.761Z,6.90
2023-01-08T10:48:45.101Z,6.80
2023-01-08T10:51:21.829Z,6.80
2023-01-08T10:53:48.786Z,6.90
2023-01-08T10:56:25.766Z,6.90
2023-01-08T10:58:53.522Z,6.80
2023-01-08T11:01:30.560Z,6.80
2023-01-08T11:04:01.439Z,6.80
2023-01-08T11:06:45.238Z,6.80
2023-01-08T11:09:25.683Z,6.90
2023-01-08T11:11:52.633Z,6.80
2023-01-08T11:14:36.066Z,6.80
2023-01-08T11:17:12.921Z,6.70
2023-01-08T11:19:40.056Z,6.70
2023-01-08T11:22:23.639Z,6.70
2023-01-08T11:24:53.495Z,6.80
2023-01-08T11:27:29.377Z,6.70
2023-01-08T11:30:19.709Z,6.80
2023-01-08T11:32:51.610Z,6.80
2023-01-08T11:35:33.226Z,6.80
2023-01-08T11:38:02.883Z,6.80
2023-01-08T11:40:55.239Z,6.80
2023-01-08T11:43:46.503Z,6.80
2023-01-08T11:46:52.342Z,6.90
2023-01-08T11:50:01.065Z,6.90
2023-01-08T11:52:59.062Z,6.90
2023-01-08T11:55:25.918Z,6.90
2023-01-08T11:58:23.144Z,6.90
2023-01-08T12:00:58.891Z,7.00
2023-01-08T12:03:44.793Z,6.90
2023-01-08T12:07:02.109Z,7.00
2023-01-08T12:09:46.330Z,6.90
2023-01-08T12:12:43.813Z,7.00
2023-01-08T12:15:26.415Z,7.00
2023-01-08T12:18:57.612Z,7.00
2023-01-08T12:21:33.216Z,6.90
2023-01-08T12:24:44.312Z,7.00
2023-01-08T12:27:13.913Z,7.00
2023-01-08T12:30:08.319Z,7.10
2023-01-08T12:32:48.430Z,7.00
2023-01-08T12:35:24.873Z,7.00
2023-01-08T12:38:30.719Z,7.00
2023-01-08T12:41:06.201Z,7.10
2023-01-08T12:44:01.145Z,7.10
2023-01-08T12:46:35.797Z,7.10
2023-01-08T12:49:08.008Z,7.10
2023-01-08T12:51:59.518Z,7.10
2023-01-08T12:54:39.517Z,7.20
2023-01-08T12:57:25.265Z,7.10
2023-01-08T13:00:37.743Z,7.10
2023-01-08T13:03:14.996Z,7.10
2023-01-08T13:05:43.539Z,7.10
2023-01-08T13:08:35.941Z,7.00
2023-01-08T13:11:03.916Z,7.10
2023-01-08T13:13:45.196Z,7.10
2023-01-08T13:16:12.040Z,7.10
2023-01-08T13:18:39.575Z,7.10
2023-01-08T13:21:11.062Z,7.10
2023-01-08T13:23:38.437Z,7.20
2023-01-08T13:26:07.699Z,7.20
2023-01-08T13:28:37.615Z,7.20
2023-01-08T13:31:28.674Z,7.20
2023-01-08T13:33:56.481Z,7.20
2023-01-08T13:36:29.208Z,7.20
2023-01-08T13:39:24.892Z,7.20
2023-01-08T13:42:13.632Z,7.20
2023-01-08T13:44:47.563Z,7.20
2023-01-08T13:47:29.872Z,7.20
2023-01-08T13:49:58.542Z,7.20
2023-01-08T13:52:42.627Z,7.20
2023-01-08T13:55:24.187Z,7.20
2023-01-08T13:58:51.332Z,7.20
2023-01-08T14:01:19.404Z,7.20
2023-01-08T14:03:48.638Z,7.20
2023-01-08T14:06:28.293Z,7.20
2023-01-08T14:09:04.351Z,7.20
2023-01-08T14:11:42.992Z,7.20
2023-01-08T14:14:17.173Z,7.20
2023-01-08T14:16:46.257Z,7.20
2023-01-08T14:19:23.383Z,7.30
2023-01-08T14:21:56.708Z,7.30
2023-01-08T14:24:26.392Z,7.30
2023-01-08T14:26:58.978Z,7.30
2023-01-08T14:29:30.806Z,7.30
2023-01-08T14:32:01.608Z,7.30
2023-01-08T14:34:31.609Z,7.40
2023-01-08T14:36:58.695Z,7.30
2023-01-08T14:39:31.543Z,7.30
2023-01-08T14:42:27.175Z,7.40
2023-01-08T14:45:07.288Z,7.40
2023-01-08T14:47:40.054Z,7.30
2023-01-08T14:50:18.519Z,7.30
2023-01-08T14:52:46.345Z,7.30
2023-01-08T14:55:18.663Z,7.30
2023-01-08T14:57:52.605Z,7.40
2023-01-08T15:00:28.640Z,7.30
2023-01-08T15:03:02.549Z,7.30
2023-01-08T15:05:33.007Z,7.30
2023-01-08T15:08:25.981Z,7.30
2023-01-08T15:11:24.985Z,7.30
2023-01-08T15:13:56.526Z,7.30
2023-01-08T15:16:39.028Z,7.30
2023-01-08T15:19:25.873Z,7.30
2023-01-08T15:22:00.122Z,7.30
2023-01-08T15:24:31.978Z,7.30
2023-01-08T15:27:09.884Z,7.30
2023-01-08T15:29:49.161Z,7.30
2023-01-08T15:32:16.013Z,7.30
2023-01-08T15:34:45.087Z,7.30
2023-01-08T15:37:13.848Z,7.30
2023-01-08T15:39:42.150Z,7.30
2023-01-08T15:42:50.338Z,7.30
2023-01-08T15:45:28.124Z,7.30
2023-01-08T15:47:55.656Z,7.30
2023-01-08T15:50:27.455Z,7.30
2023-01-08T15:52:56.835Z,7.20
2023-01-08T15:55:25.114Z,7.20
2023-01-08T15:57:52.335Z,7.30
2023-01-08T16:00:22.450Z,7.30
2023-01-08T16:02:52.200Z,7.30
2023-01-08T16:05:22.030Z,7.30
2023-01-08T16:07:49.005Z,7.30
2023-01-08T16:10:17.420Z,7.30
2023-01-08T16:12:45.712Z,7.30
2023-01-08T16:15:15.050Z,7.20
2023-01-08T16:17:42.943Z,7.30
2023-01-08T16:20:11.362Z,7.30
2023-01-08T16:22:38.359Z,7.30
2023-01-08T16:25:05.949Z,7.30
2023-01-08T16:27:33.562Z,7.30
2023-01-08T16:30:00.523Z,7.30
2023-01-08T16:32:27.639Z,7.30
2023-01-08T16:34:54.982Z,7.30
2023-01-08T16:37:22.854Z,7.40
2023-01-08T16:39:49.882Z,7.30
2023-01-08T16:42:16.905Z,7.30
2023-01-08T16:44:43.994Z,7.40
2023-01-08T16:47:10.906Z,7.40
2023-01-08T16:49:37.719Z,7.30
2023-01-08T16:52:04.889Z,7.30
2023-01-08T16:54:33.049Z,7.30
2023-01-08T16:57:00.008Z,7.30
2023-01-08T16:59:27.294Z,7.40
2023-01-08T17:01:54.767Z,7.40
2023-01-08T17:04:22.023Z,7.40
2023-01-08T17:06:49.215Z,7.40
2023-01-08T17:09:16.151Z,7.40
2023-01-08T17:11:43.593Z,7.50
2023-01-08T17:14:10.644Z,7.50
2023-01-08T17:16:37.711Z,7.60
2023-01-08T17:19:04.930Z,7.60
2023-01-08T17:21:33.619Z,7.60
2023-01-08T17:24:00.789Z,7.60
2023-01-08T17:26:27.717Z,7.60
2023-01-08T17:28:55.066Z,7.60
2023-01-08T17:31:22.423Z,7.60
2023-01-08T17:33:50.808Z,7.60
2023-01-08T17:36:20.385Z,7.60
2023-01-08T17:38:49.370Z,7.60
2023-01-08T17:41:36.222Z,7.60
2023-01-08T17:44:06.921Z,7.70
2023-01-08T17:46:42.306Z,7.70
2023-01-08T17:49:11.353Z,7.70
2023-01-08T17:51:40.773Z,7.70
2023-01-08T17:54:17.081Z,7.70
2023-01-08T17:56:44.440Z,7.70
2023-01-08T17:59:15.829Z,7.70
2023-01-08T18:01:45.226Z,7.70
2023-01-08T18:04:14.446Z,7.70
2023-01-08T18:06:47.434Z,7.70
2023-01-08T18:09:15.209Z,7.70
2023-01-08T18:11:43.243Z,7.70
2023-01-08T18:14:13.168Z,7.70
2023-01-08T18:16:45.177Z,7.60
2023-01-08T18:19:17.001Z,7.70
2023-01-08T18:21:44.707Z,7.60
2023-01-08T18:24:12.518Z,7.60
2023-01-08T18:26:40.468Z,7.60
2023-01-08T18:29:07.864Z,7.60
2023-01-08T18:31:34.868Z,7.70
2023-01-08T18:34:03.918Z,7.70
2023-01-08T18:36:30.972Z,7.70
2023-01-08T18:38:57.952Z,7.70
2023-01-08T18:41:43.490Z,7.70
2023-01-08T18:44:11.199Z,7.70
2023-01-08T18:46:38.476Z,7.70
2023-01-08T18:49:06.479Z,7.70
2023-01-08T18:51:33.890Z,7.70
2023-01-08T18:54:01.035Z,7.70
2023-01-08T18:56:32.073Z,7.70
2023-01-08T18:59:00.016Z,7.70
2023-01-08T19:01:28.483Z,7.70
2023-01-08T19:03:56.647Z,7.70
2023-01-08T19:06:23.940Z,7.70
2023-01-08T19:08:51.615Z,7.70
2023-01-08T19:11:18.963Z,7.70
2023-01-08T19:13:46.129Z,7.70
2023-01-08T19:16:14.146Z,7.70
2023-01-08T19:18:41.329Z,7.70
2023-01-08T19:21:10.184Z,7.70
2023-01-08T19:23:37.194Z,7.70
2023-01-08T19:26:08.935Z,7.70
2023-01-08T19:28:36.316Z,7.70
2023-01-08T19:31:05.063Z,7.70
2023-01-08T19:33:32.041Z,7.70
2023-01-08T19:36:08.715Z,7.70
2023-01-08T19:38:35.751Z,7.80
2023-01-08T19:41:03.260Z,7.80
2023-01-08T19:43:42.664Z,7.80
2023-01-08T19:46:15.422Z,7.70
2023-01-08T19:48:44.124Z,7.70
2023-01-08T19:51:13.090Z,7.70
2023-01-08T19:53:40.472Z,7.70
2023-01-08T19:56:13.715Z,7.70
2023-01-08T19:58:41.601Z,7.70
2023-01-08T20:01:21.754Z,7.70
2023-01-08T20:03:49.395Z,7.70
2023-01-08T20:06:24.584Z,7.70
2023-01-08T20:08:58.223Z,7.70
2023-01-08T20:11:26.724Z,7.70
2023-01-08T20:13:55.591Z,7.70
2023-01-08T20:16:24.637Z,7.80
2023-01-08T20:18:56.550Z,7.80
2023-01-08T20:21:24.057Z,7.70
2023-01-08T20:24:06.986Z,7.70
2023-01-08T20:26:36.470Z,7.80
2023-01-08T20:29:04.609Z,7.80
2023-01-08T20:31:34.419Z,7.80
2023-01-08T20:34:06.039Z,7.80
2023-01-08T20:36:34.833Z,7.80
2023-01-08T20:39:09.774Z,7.80
2023-01-08T20:41:36.730Z,7.70
2023-01-08T20:44:06.919Z,7.70
2023-01-08T20:46:37.219Z,7.70
2023-01-08T20:49:10.176Z,7.70
2023-01-08T20:51:44.093Z,7.70
2023-01-08T20:54:16.265Z,7.70
2023-01-08T20:56:44.861Z,7.70
2023-01-08T20:59:12.280Z,7.70
2023-01-08T21:01:39.244Z,7.60
2023-01-08T21:04:08.795Z,7.70
2023-01-08T21:06:36.960Z,7.70
2023-01-08T21:09:08.538Z,7.70
2023-01-08T21:11:38.930Z,7.70
2023-01-08T21:14:08.056Z,7.70
2023-01-08T21:16:36.556Z,7.70
2023-01-08T21:19:04.056Z,7.70
2023-01-08T21:21:34.944Z,7.70
2023-01-08T21:24:05.004Z,7.70
2023-01-08T21:26:33.957Z,7.70
2023-01-08T21:29:06.304Z,7.80
2023-01-08T21:31:34.032Z,7.70
2023-01-08T21:34:03.155Z,7.80
2023-01-08T21:36:32.053Z,7.80
2023-01-08T21:39:01.089Z,7.80
2023-01-08T21:41:49.133Z,7.80
2023-01-08T21:44:40.646Z,7.80
2023-01-08T21:47:13.176Z,7.80
2023-01-08T21:49:41.092Z,7.70
2023-01-08T21:52:26.894Z,7.80
2023-01-08T21:54:54.007Z,7.80
2023-01-08T21:57:21.174Z,7.70
2023-01-08T21:59:51.645Z,7.70
2023-01-08T22:02:22.529Z,7.70
2023-01-08T22:04:49.423Z,7.70
2023-01-08T22:07:16.963Z,7.70
2023-01-08T22:09:44.158Z,7.70
2023-01-08T22:12:11.039Z,7.70
2023-01-08T22:14:38.195Z,7.70
2023-01-08T22:17:08.342Z,7.70
2023-01-08T22:19:38.730Z,7.60
2023-01-08T22:22:09.467Z,7.60
2023-01-08T22:24:37.475Z,7.50
2023-01-08T22:27:04.387Z,7.50
2023-01-08T22:29:31.587Z,7.50
2023-01-08T22:31:58.433Z,7.40
2023-01-08T22:34:32.342Z,7.40
2023-01-08T22:36:59.634Z,7.40
2023-01-08T22:39:27.155Z,7.40
2023-01-08T22:41:54.019Z,7.30
2023-01-08T22:44:20.919Z,7.30
2023-01-08T22:46:47.810Z,7.30
2023-01-08T22:49:15.328Z,7.30
2023-01-08T22:51:45.701Z,7.30
2023-01-08T22:54:14.376Z,7.30
2023-01-08T22:56:41.313Z,7.30
2023-01-08T22:59:08.315Z,7.30
2023-01-08T23:01:35.328Z,7.20
2023-01-08T23:04:03.519Z,7.20
2023-01-08T23:06:32.388Z,7.20
2023-01-08T23:09:00.191Z,7.20
2023-01-08T23:11:28.182Z,7.20
2023-01-08T23:13:55.648Z,7.20
2023-01-08T23:16:25.346Z,7.20
2023-01-08T23:18:56.164Z,7.30
2023-01-08T23:21:25.923Z,7.30
2023-01-08T23:23:56.253Z,7.30
2023-01-08T23:26:27.917Z,7.20
2023-01-08T23:28:56.876Z,7.20
2023-01-08T23:31:27.805Z,7.20
2023-01-08T23:33:55.292Z,7.30
2023-01-08T23:36:23.416Z,7.30
2023-01-08T23:38:53.822Z,7.30
2023-01-08T23:41:30.964Z,7.40
2023-01-08T23:44:02.541Z,7.40
2023-01-08T23:46:29.410Z,7.30
2023-01-08T23:48:56.772Z,7.30
2023-01-08T23:51:24.490Z,7.30
2023-01-08T23:53:51.563Z,7.30
2023-01-08T23:56:20.639Z,7.30
2023-01-08T23:58:48.870Z,7.30
